sensor_id;sensor_type;location;lat;lon;timestamp;temperature;humidity
24152;DHT22;12311;50.866;4.332;2022-09-17T00:00:58;11.20;99.90
24152;DHT22;12311;50.866;4.332;2022-09-17T00:03:25;11.20;99.90
24152;DHT22;12311;50.866;4.332;2022-09-17T00:08:28;11.10;99.90
24152;DHT22;12311;50.866;4.332;2022-09-17T00:10:54;11.10;99.90
24152;DHT22;12311;50.866;4.332;2022-09-17T00:13:20;11.10;99.90
24152;DHT22;12311;50.866;4.332;2022-09-17T00:15:46;11.10;99.90
24152;DHT22;12311;50.866;4.332;2022-09-17T00:18:13;11.20;99.90
24152;DHT22;12311;50.866;4.332;2022-09-17T00:20:44;11.20;99.90
24152;DHT22;12311;50.866;4.332;2022-09-17T00:23:11;11.10;99.90
24152;DHT22;12311;50.866;4.332;2022-09-17T00:25:39;11.00;99.90
24152;DHT22;12311;50.866;4.332;2022-09-17T00:28:05;11.00;99.90
24152;DHT22;12311;50.866;4.332;2022-09-17T00:30:30;11.00;99.90
24152;DHT22;12311;50.866;4.332;2022-09-17T00:32:56;11.00;99.90
24152;DHT22;12311;50.866;4.332;2022-09-17T00:35:23;10.90;99.90
24152;DHT22;12311;50.866;4.332;2022-09-17T00:37:49;11.00;99.90
24152;DHT22;12311;50.866;4.332;2022-09-17T00:40:15;11.00;99.90
24152;DHT22;12311;50.866;4.332;2022-09-17T00:42:44;10.90;99.90
24152;DHT22;12311;50.866;4.332;2022-09-17T00:45:11;11.00;99.90
24152;DHT22;12311;50.866;4.332;2022-09-17T00:48:12;10.90;99.90
24152;DHT22;12311;50.866;4.332;2022-09-17T00:50:41;11.00;99.90
24152;DHT22;12311;50.866;4.332;2022-09-17T00:53:12;10.90;99.90
24152;DHT22;12311;50.866;4.332;2022-09-17T00:55:42;10.80;99.90
24152;DHT22;12311;50.866;4.332;2022-09-17T00:58:11;10.90;99.90
24152;DHT22;12311;50.866;4.332;2022-09-17T01:00:39;10.90;99.90
24152;DHT22;12311;50.866;4.332;2022-09-17T01:03:05;11.00;99.90
24152;DHT22;12311;50.866;4.332;2022-09-17T01:16:58;10.90;99.90
24152;DHT22;12311;50.866;4.332;2022-09-17T01:33:34;11.00;99.90
24152;DHT22;12311;50.866;4.332;2022-09-17T01:36:12;11.10;99.90
24152;DHT22;12311;50.866;4.332;2022-09-17T01:43:54;11.20;99.90
24152;DHT22;12311;50.866;4.332;2022-09-17T01:46:21;11.20;99.90
24152;DHT22;12311;50.866;4.332;2022-09-17T01:48:51;11.20;99.90
24152;DHT22;12311;50.866;4.332;2022-09-17T01:51:26;11.20;99.90
24152;DHT22;12311;50.866;4.332;2022-09-17T01:56:39;11.20;99.90
24152;DHT22;12311;50.866;4.332;2022-09-17T01:59:09;11.20;99.90
24152;DHT22;12311;50.866;4.332;2022-09-17T02:01:37;11.20;99.90
24152;DHT22;12311;50.866;4.332;2022-09-17T02:04:19;11.20;99.90
24152;DHT22;12311;50.866;4.332;2022-09-17T02:06:50;11.30;99.90
24152;DHT22;12311;50.866;4.332;2022-09-17T02:09:19;11.40;99.90
24152;DHT22;12311;50.866;4.332;2022-09-17T02:11:51;11.40;99.90
24152;DHT22;12311;50.866;4.332;2022-09-17T02:14:47;11.40;99.90
24152;DHT22;12311;50.866;4.332;2022-09-17T02:17:26;11.40;99.90
24152;DHT22;12311;50.866;4.332;2022-09-17T02:19:55;11.30;99.90
24152;DHT22;12311;50.866;4.332;2022-09-17T02:22:40;11.20;99.90
24152;DHT22;12311;50.866;4.332;2022-09-17T02:28:12;11.30;99.90
24152;DHT22;12311;50.866;4.332;2022-09-17T02:30:39;11.30;99.90
24152;DHT22;12311;50.866;4.332;2022-09-17T02:33:07;11.40;99.90
24152;DHT22;12311;50.866;4.332;2022-09-17T02:35:34;11.50;99.90
24152;DHT22;12311;50.866;4.332;2022-09-17T02:38:00;11.50;99.90
24152;DHT22;12311;50.866;4.332;2022-09-17T02:40:28;11.60;99.90
24152;DHT22;12311;50.866;4.332;2022-09-17T02:43:10;11.50;99.90
24152;DHT22;12311;50.866;4.332;2022-09-17T02:56:44;11.30;99.90
24152;DHT22;12311;50.866;4.332;2022-09-17T02:59:14;11.30;99.90
24152;DHT22;12311;50.866;4.332;2022-09-17T03:01:57;11.30;99.90
24152;DHT22;12311;50.866;4.332;2022-09-17T03:04:26;11.20;99.90
24152;DHT22;12311;50.866;4.332;2022-09-17T03:06:57;11.20;99.90
24152;DHT22;12311;50.866;4.332;2022-09-17T03:09:24;11.10;99.90
24152;DHT22;12311;50.866;4.332;2022-09-17T03:11:49;11.00;99.90
24152;DHT22;12311;50.866;4.332;2022-09-17T03:14:15;11.00;99.90
24152;DHT22;12311;50.866;4.332;2022-09-17T03:16:41;11.00;99.90
24152;DHT22;12311;50.866;4.332;2022-09-17T03:19:06;11.00;99.90
24152;DHT22;12311;50.866;4.332;2022-09-17T03:21:32;11.00;99.90
24152;DHT22;12311;50.866;4.332;2022-09-17T03:23:58;10.90;99.90
24152;DHT22;12311;50.866;4.332;2022-09-17T03:26:25;10.90;99.90
24152;DHT22;12311;50.866;4.332;2022-09-17T03:28:51;10.80;99.90
24152;DHT22;12311;50.866;4.332;2022-09-17T03:31:16;10.80;99.90
24152;DHT22;12311;50.866;4.332;2022-09-17T03:33:42;10.80;99.90
24152;DHT22;12311;50.866;4.332;2022-09-17T03:36:08;10.70;99.90
24152;DHT22;12311;50.866;4.332;2022-09-17T03:38:33;10.70;99.90
24152;DHT22;12311;50.866;4.332;2022-09-17T03:41:04;10.70;99.90
24152;DHT22;12311;50.866;4.332;2022-09-17T03:43:31;10.70;99.90
24152;DHT22;12311;50.866;4.332;2022-09-17T03:45:57;10.60;99.90
24152;DHT22;12311;50.866;4.332;2022-09-17T03:48:23;10.60;99.90
24152;DHT22;12311;50.866;4.332;2022-09-17T03:50:49;10.50;99.90
24152;DHT22;12311;50.866;4.332;2022-09-17T03:53:15;10.60;99.90
24152;DHT22;12311;50.866;4.332;2022-09-17T03:55:41;10.50;99.90
24152;DHT22;12311;50.866;4.332;2022-09-17T03:58:07;10.50;99.90
24152;DHT22;12311;50.866;4.332;2022-09-17T04:00:33;10.60;99.90
24152;DHT22;12311;50.866;4.332;2022-09-17T04:03:01;10.60;99.90
24152;DHT22;12311;50.866;4.332;2022-09-17T04:05:27;10.70;99.90
24152;DHT22;12311;50.866;4.332;2022-09-17T04:07:53;10.70;99.90
24152;DHT22;12311;50.866;4.332;2022-09-17T04:10:18;10.70;99.90
24152;DHT22;12311;50.866;4.332;2022-09-17T04:12:44;10.70;99.90
24152;DHT22;12311;50.866;4.332;2022-09-17T04:15:10;10.80;99.90
24152;DHT22;12311;50.866;4.332;2022-09-17T04:17:35;10.60;99.90
24152;DHT22;12311;50.866;4.332;2022-09-17T04:20:02;10.60;99.90
24152;DHT22;12311;50.866;4.332;2022-09-17T04:22:28;10.60;99.90
24152;DHT22;12311;50.866;4.332;2022-09-17T04:24:54;10.50;99.90
24152;DHT22;12311;50.866;4.332;2022-09-17T04:27:19;10.50;99.90
24152;DHT22;12311;50.866;4.332;2022-09-17T04:29:45;10.50;99.90
24152;DHT22;12311;50.866;4.332;2022-09-17T04:32:11;10.50;99.90
24152;DHT22;12311;50.866;4.332;2022-09-17T04:34:36;10.50;99.90
24152;DHT22;12311;50.866;4.332;2022-09-17T04:37:02;10.50;99.90
24152;DHT22;12311;50.866;4.332;2022-09-17T04:39:27;10.50;99.90
24152;DHT22;12311;50.866;4.332;2022-09-17T04:41:54;10.50;99.90
24152;DHT22;12311;50.866;4.332;2022-09-17T04:44:19;10.50;99.90
24152;DHT22;12311;50.866;4.332;2022-09-17T04:46:45;10.60;99.90
24152;DHT22;12311;50.866;4.332;2022-09-17T04:49:11;10.50;99.90
24152;DHT22;12311;50.866;4.332;2022-09-17T04:51:37;10.60;99.90
24152;DHT22;12311;50.866;4.332;2022-09-17T04:54:03;10.60;99.90
24152;DHT22;12311;50.866;4.332;2022-09-17T04:56:29;10.70;99.90
24152;DHT22;12311;50.866;4.332;2022-09-17T04:58:54;10.70;99.90
24152;DHT22;12311;50.866;4.332;2022-09-17T05:01:20;10.70;99.90
24152;DHT22;12311;50.866;4.332;2022-09-17T05:03:46;10.70;99.90
24152;DHT22;12311;50.866;4.332;2022-09-17T05:06:11;10.70;99.90
24152;DHT22;12311;50.866;4.332;2022-09-17T05:08:37;10.70;99.90
24152;DHT22;12311;50.866;4.332;2022-09-17T05:11:03;10.60;99.90
24152;DHT22;12311;50.866;4.332;2022-09-17T05:13:32;10.60;99.90
24152;DHT22;12311;50.866;4.332;2022-09-17T05:15:57;10.70;99.90
24152;DHT22;12311;50.866;4.332;2022-09-17T05:18:24;10.50;99.90
24152;DHT22;12311;50.866;4.332;2022-09-17T05:20:50;10.50;99.90
24152;DHT22;12311;50.866;4.332;2022-09-17T05:23:16;10.50;99.90
24152;DHT22;12311;50.866;4.332;2022-09-17T05:25:42;10.50;99.90
24152;DHT22;12311;50.866;4.332;2022-09-17T05:28:08;10.50;99.90
24152;DHT22;12311;50.866;4.332;2022-09-17T05:30:34;10.50;99.90
24152;DHT22;12311;50.866;4.332;2022-09-17T05:33:01;10.50;99.90
24152;DHT22;12311;50.866;4.332;2022-09-17T05:35:27;10.50;99.90
24152;DHT22;12311;50.866;4.332;2022-09-17T05:38:00;10.50;99.90
24152;DHT22;12311;50.866;4.332;2022-09-17T05:40:26;10.50;99.90
24152;DHT22;12311;50.866;4.332;2022-09-17T05:43:00;10.60;99.90
24152;DHT22;12311;50.866;4.332;2022-09-17T05:45:27;10.70;99.90
24152;DHT22;12311;50.866;4.332;2022-09-17T05:47:55;10.80;99.90
24152;DHT22;12311;50.866;4.332;2022-09-17T05:50:21;10.70;99.90
24152;DHT22;12311;50.866;4.332;2022-09-17T05:52:46;10.80;99.90
24152;DHT22;12311;50.866;4.332;2022-09-17T05:55:12;10.90;99.90
24152;DHT22;12311;50.866;4.332;2022-09-17T05:57:38;10.90;99.90
24152;DHT22;12311;50.866;4.332;2022-09-17T06:00:04;11.00;99.90
24152;DHT22;12311;50.866;4.332;2022-09-17T06:02:30;11.00;99.90
24152;DHT22;12311;50.866;4.332;2022-09-17T06:04:56;11.00;99.90
24152;DHT22;12311;50.866;4.332;2022-09-17T06:07:25;11.00;99.90
24152;DHT22;12311;50.866;4.332;2022-09-17T06:09:51;10.90;99.90
24152;DHT22;12311;50.866;4.332;2022-09-17T06:12:16;11.00;99.90
24152;DHT22;12311;50.866;4.332;2022-09-17T06:14:42;11.00;99.90
24152;DHT22;12311;50.866;4.332;2022-09-17T06:17:07;11.00;99.90
24152;DHT22;12311;50.866;4.332;2022-09-17T06:19:33;11.00;99.90
24152;DHT22;12311;50.866;4.332;2022-09-17T06:21:59;11.00;99.90
24152;DHT22;12311;50.866;4.332;2022-09-17T06:24:24;11.10;99.90
24152;DHT22;12311;50.866;4.332;2022-09-17T06:26:53;11.20;99.90
24152;DHT22;12311;50.866;4.332;2022-09-17T06:29:19;11.20;99.90
24152;DHT22;12311;50.866;4.332;2022-09-17T06:31:49;11.10;99.90
24152;DHT22;12311;50.866;4.332;2022-09-17T06:34:15;11.10;99.90
24152;DHT22;12311;50.866;4.332;2022-09-17T06:36:42;11.00;99.90
24152;DHT22;12311;50.866;4.332;2022-09-17T06:39:07;11.00;99.90
24152;DHT22;12311;50.866;4.332;2022-09-17T06:41:34;11.00;99.90
24152;DHT22;12311;50.866;4.332;2022-09-17T06:44:01;11.00;99.90
24152;DHT22;12311;50.866;4.332;2022-09-17T06:46:28;11.00;99.90
24152;DHT22;12311;50.866;4.332;2022-09-17T06:48:53;11.00;99.90
24152;DHT22;12311;50.866;4.332;2022-09-17T06:51:19;11.00;99.90
24152;DHT22;12311;50.866;4.332;2022-09-17T06:53:47;11.10;99.90
24152;DHT22;12311;50.866;4.332;2022-09-17T06:56:13;11.10;99.90
24152;DHT22;12311;50.866;4.332;2022-09-17T06:58:39;11.10;99.90
24152;DHT22;12311;50.866;4.332;2022-09-17T07:01:09;11.20;99.90
24152;DHT22;12311;50.866;4.332;2022-09-17T07:03:35;11.10;99.90
24152;DHT22;12311;50.866;4.332;2022-09-17T07:06:02;11.20;99.90
24152;DHT22;12311;50.866;4.332;2022-09-17T07:08:28;11.30;99.90
24152;DHT22;12311;50.866;4.332;2022-09-17T07:10:56;11.40;99.90
24152;DHT22;12311;50.866;4.332;2022-09-17T07:13:23;11.50;99.90
24152;DHT22;12311;50.866;4.332;2022-09-17T07:15:56;11.50;99.90
24152;DHT22;12311;50.866;4.332;2022-09-17T07:18:23;11.70;99.90
24152;DHT22;12311;50.866;4.332;2022-09-17T07:20:52;11.70;99.90
24152;DHT22;12311;50.866;4.332;2022-09-17T07:23:18;11.70;99.90
24152;DHT22;12311;50.866;4.332;2022-09-17T07:25:47;11.70;99.90
24152;DHT22;12311;50.866;4.332;2022-09-17T07:28:15;11.60;99.90
24152;DHT22;12311;50.866;4.332;2022-09-17T07:30:40;11.60;99.90
24152;DHT22;12311;50.866;4.332;2022-09-17T07:33:06;11.60;99.90
24152;DHT22;12311;50.866;4.332;2022-09-17T07:35:32;11.70;99.90
24152;DHT22;12311;50.866;4.332;2022-09-17T07:37:57;11.60;99.90
24152;DHT22;12311;50.866;4.332;2022-09-17T07:40:23;11.60;99.90
24152;DHT22;12311;50.866;4.332;2022-09-17T07:42:49;11.60;99.90
24152;DHT22;12311;50.866;4.332;2022-09-17T07:45:15;11.80;99.90
24152;DHT22;12311;50.866;4.332;2022-09-17T07:47:40;11.90;99.90
24152;DHT22;12311;50.866;4.332;2022-09-17T07:50:07;11.90;99.90
24152;DHT22;12311;50.866;4.332;2022-09-17T07:52:33;11.90;99.90
24152;DHT22;12311;50.866;4.332;2022-09-17T07:54:58;11.90;99.90
24152;DHT22;12311;50.866;4.332;2022-09-17T07:57:24;11.90;99.90
24152;DHT22;12311;50.866;4.332;2022-09-17T07:59:50;11.90;99.90
24152;DHT22;12311;50.866;4.332;2022-09-17T08:02:15;12.00;99.90
24152;DHT22;12311;50.866;4.332;2022-09-17T08:04:41;12.00;99.90
24152;DHT22;12311;50.866;4.332;2022-09-17T08:07:12;12.10;99.90
24152;DHT22;12311;50.866;4.332;2022-09-17T08:09:38;12.20;99.90
24152;DHT22;12311;50.866;4.332;2022-09-17T08:12:04;12.20;99.90
24152;DHT22;12311;50.866;4.332;2022-09-17T08:14:30;12.30;99.90
24152;DHT22;12311;50.866;4.332;2022-09-17T08:16:56;12.40;99.90
24152;DHT22;12311;50.866;4.332;2022-09-17T08:19:21;12.30;99.90
24152;DHT22;12311;50.866;4.332;2022-09-17T08:21:47;12.30;99.90
24152;DHT22;12311;50.866;4.332;2022-09-17T08:24:12;12.50;99.90
24152;DHT22;12311;50.866;4.332;2022-09-17T08:26:38;12.60;99.90
24152;DHT22;12311;50.866;4.332;2022-09-17T08:29:04;12.80;99.90
24152;DHT22;12311;50.866;4.332;2022-09-17T08:31:31;12.80;99.90
24152;DHT22;12311;50.866;4.332;2022-09-17T08:33:58;12.90;99.90
24152;DHT22;12311;50.866;4.332;2022-09-17T08:36:24;13.10;99.90
24152;DHT22;12311;50.866;4.332;2022-09-17T08:38:54;13.30;99.90
24152;DHT22;12311;50.866;4.332;2022-09-17T08:44:06;13.90;99.90
24152;DHT22;12311;50.866;4.332;2022-09-17T08:46:46;14.00;99.90
24152;DHT22;12311;50.866;4.332;2022-09-17T09:00:25;13.50;99.90
24152;DHT22;12311;50.866;4.332;2022-09-17T09:05:55;13.60;99.90
24152;DHT22;12311;50.866;4.332;2022-09-17T09:11:13;13.70;99.90
24152;DHT22;12311;50.866;4.332;2022-09-17T09:13:59;13.90;99.90
24152;DHT22;12311;50.866;4.332;2022-09-17T09:16:30;13.90;99.90
24152;DHT22;12311;50.866;4.332;2022-09-17T09:19:25;13.60;99.90
24152;DHT22;12311;50.866;4.332;2022-09-17T09:24:40;13.20;99.90
24152;DHT22;12311;50.866;4.332;2022-09-17T09:27:17;13.20;99.90
24152;DHT22;12311;50.866;4.332;2022-09-17T09:32:57;12.70;99.90
24152;DHT22;12311;50.866;4.332;2022-09-17T09:35:30;12.30;99.90
24152;DHT22;12311;50.866;4.332;2022-09-17T09:43:46;12.50;99.90
24152;DHT22;12311;50.866;4.332;2022-09-17T09:57:46;13.20;99.90
24152;DHT22;12311;50.866;4.332;2022-09-17T10:00:39;13.50;99.90
24152;DHT22;12311;50.866;4.332;2022-09-17T10:03:22;13.60;99.90
24152;DHT22;12311;50.866;4.332;2022-09-17T10:05:56;13.80;99.90
24152;DHT22;12311;50.866;4.332;2022-09-17T10:08:23;14.00;99.90
24152;DHT22;12311;50.866;4.332;2022-09-17T10:13:39;14.20;99.90
24152;DHT22;12311;50.866;4.332;2022-09-17T10:18:43;14.30;99.90
24152;DHT22;12311;50.866;4.332;2022-09-17T10:21:39;14.40;99.90
24152;DHT22;12311;50.866;4.332;2022-09-17T10:24:29;14.30;99.90
24152;DHT22;12311;50.866;4.332;2022-09-17T10:27:01;14.20;99.90
24152;DHT22;12311;50.866;4.332;2022-09-17T10:29:29;14.00;99.90
24152;DHT22;12311;50.866;4.332;2022-09-17T10:31:56;14.00;99.90
24152;DHT22;12311;50.866;4.332;2022-09-17T10:34:27;14.00;99.90
24152;DHT22;12311;50.866;4.332;2022-09-17T10:36:55;14.00;99.90
24152;DHT22;12311;50.866;4.332;2022-09-17T10:39:38;14.00;99.90
24152;DHT22;12311;50.866;4.332;2022-09-17T10:42:18;14.10;99.90
24152;DHT22;12311;50.866;4.332;2022-09-17T10:44:55;14.10;99.90
24152;DHT22;12311;50.866;4.332;2022-09-17T10:47:35;14.10;99.90
24152;DHT22;12311;50.866;4.332;2022-09-17T10:50:15;14.20;99.90
24152;DHT22;12311;50.866;4.332;2022-09-17T10:52:47;14.20;99.90
24152;DHT22;12311;50.866;4.332;2022-09-17T10:55:32;14.00;99.90
24152;DHT22;12311;50.866;4.332;2022-09-17T11:11:17;13.90;99.90
24152;DHT22;12311;50.866;4.332;2022-09-17T11:16:44;13.70;99.90
24152;DHT22;12311;50.866;4.332;2022-09-17T11:19:22;13.80;99.90
24152;DHT22;12311;50.866;4.332;2022-09-17T11:22:10;13.80;99.90
24152;DHT22;12311;50.866;4.332;2022-09-17T11:24:59;13.90;99.90
24152;DHT22;12311;50.866;4.332;2022-09-17T11:27:34;14.00;99.90
24152;DHT22;12311;50.866;4.332;2022-09-17T11:35:46;14.10;99.90
24152;DHT22;12311;50.866;4.332;2022-09-17T11:43:37;14.20;99.90
24152;DHT22;12311;50.866;4.332;2022-09-17T11:46:11;14.10;99.90
24152;DHT22;12311;50.866;4.332;2022-09-17T11:48:43;13.90;99.90
24152;DHT22;12311;50.866;4.332;2022-09-17T11:51:30;13.90;99.90
24152;DHT22;12311;50.866;4.332;2022-09-17T11:53:58;14.00;99.90
24152;DHT22;12311;50.866;4.332;2022-09-17T11:59:03;14.00;99.90
24152;DHT22;12311;50.866;4.332;2022-09-17T12:01:40;14.10;99.90
24152;DHT22;12311;50.866;4.332;2022-09-17T12:04:46;13.90;99.90
24152;DHT22;12311;50.866;4.332;2022-09-17T12:10:43;14.50;99.90
24152;DHT22;12311;50.866;4.332;2022-09-17T12:15:55;15.10;99.90
24152;DHT22;12311;50.866;4.332;2022-09-17T12:21:04;15.20;99.90
24152;DHT22;12311;50.866;4.332;2022-09-17T12:23:43;15.60;99.90
24152;DHT22;12311;50.866;4.332;2022-09-17T12:29:00;16.50;99.90
24152;DHT22;12311;50.866;4.332;2022-09-17T12:31:43;16.80;99.90
24152;DHT22;12311;50.866;4.332;2022-09-17T12:43:16;15.90;99.90
24152;DHT22;12311;50.866;4.332;2022-09-17T12:48:42;15.40;99.90
24152;DHT22;12311;50.866;4.332;2022-09-17T12:54:02;15.10;99.90
24152;DHT22;12311;50.866;4.332;2022-09-17T12:59:29;14.00;99.90
24152;DHT22;12311;50.866;4.332;2022-09-17T13:02:01;13.40;99.90
24152;DHT22;12311;50.866;4.332;2022-09-17T13:12:43;12.20;99.90
24152;DHT22;12311;50.866;4.332;2022-09-17T13:18:25;12.10;99.90
24152;DHT22;12311;50.866;4.332;2022-09-17T13:23:32;12.50;99.90
24152;DHT22;12311;50.866;4.332;2022-09-17T13:25:59;12.80;99.90
24152;DHT22;12311;50.866;4.332;2022-09-17T13:28:49;13.10;99.90
24152;DHT22;12311;50.866;4.332;2022-09-17T13:39:47;13.70;99.90
24152;DHT22;12311;50.866;4.332;2022-09-17T13:42:28;14.50;99.90
24152;DHT22;12311;50.866;4.332;2022-09-17T13:45:10;15.10;99.90
24152;DHT22;12311;50.866;4.332;2022-09-17T13:50:27;16.20;99.90
24152;DHT22;12311;50.866;4.332;2022-09-17T13:52:56;16.40;99.90
24152;DHT22;12311;50.866;4.332;2022-09-17T13:55:38;16.60;99.90
24152;DHT22;12311;50.866;4.332;2022-09-17T13:58:09;16.80;99.90
24152;DHT22;12311;50.866;4.332;2022-09-17T14:00:57;17.00;99.90
24152;DHT22;12311;50.866;4.332;2022-09-17T14:06:44;17.30;99.90
24152;DHT22;12311;50.866;4.332;2022-09-17T14:13:47;17.40;99.90
24152;DHT22;12311;50.866;4.332;2022-09-17T14:32:23;15.30;99.90
24152;DHT22;12311;50.866;4.332;2022-09-17T14:35:00;14.40;99.90
24152;DHT22;12311;50.866;4.332;2022-09-17T14:37:27;13.90;99.90
24152;DHT22;12311;50.866;4.332;2022-09-17T14:39:53;13.30;99.90
24152;DHT22;12311;50.866;4.332;2022-09-17T14:42:22;12.90;99.90
24152;DHT22;12311;50.866;4.332;2022-09-17T14:44:55;12.60;99.90
24152;DHT22;12311;50.866;4.332;2022-09-17T14:47:23;12.50;99.90
24152;DHT22;12311;50.866;4.332;2022-09-17T14:49:49;12.40;99.90
24152;DHT22;12311;50.866;4.332;2022-09-17T14:52:29;12.40;99.90
24152;DHT22;12311;50.866;4.332;2022-09-17T14:55:29;12.50;99.90
24152;DHT22;12311;50.866;4.332;2022-09-17T14:57:57;12.80;99.90
24152;DHT22;12311;50.866;4.332;2022-09-17T15:00:30;13.30;99.90
24152;DHT22;12311;50.866;4.332;2022-09-17T15:02:58;13.60;99.90
24152;DHT22;12311;50.866;4.332;2022-09-17T15:05:27;13.70;99.90
24152;DHT22;12311;50.866;4.332;2022-09-17T15:10:54;13.80;99.90
24152;DHT22;12311;50.866;4.332;2022-09-17T15:16:02;13.60;99.90
24152;DHT22;12311;50.866;4.332;2022-09-17T15:21:03;13.80;99.90
24152;DHT22;12311;50.866;4.332;2022-09-17T15:23:32;13.80;99.90
24152;DHT22;12311;50.866;4.332;2022-09-17T15:26:00;13.80;99.90
24152;DHT22;12311;50.866;4.332;2022-09-17T15:28:32;13.80;99.90
24152;DHT22;12311;50.866;4.332;2022-09-17T15:30:59;13.70;99.90
24152;DHT22;12311;50.866;4.332;2022-09-17T15:33:25;13.80;99.90
24152;DHT22;12311;50.866;4.332;2022-09-17T15:36:18;13.80;99.90
24152;DHT22;12311;50.866;4.332;2022-09-17T15:38:46;13.90;99.90
24152;DHT22;12311;50.866;4.332;2022-09-17T15:43:46;13.70;99.90
24152;DHT22;12311;50.866;4.332;2022-09-17T15:46:23;13.70;99.90
24152;DHT22;12311;50.866;4.332;2022-09-17T15:48:54;13.60;99.90
24152;DHT22;12311;50.866;4.332;2022-09-17T15:51:28;13.60;99.90
24152;DHT22;12311;50.866;4.332;2022-09-17T15:54:03;13.60;99.90
24152;DHT22;12311;50.866;4.332;2022-09-17T15:56:35;13.70;99.90
24152;DHT22;12311;50.866;4.332;2022-09-17T15:59:04;13.70;99.90
24152;DHT22;12311;50.866;4.332;2022-09-17T16:04:17;13.60;99.90
24152;DHT22;12311;50.866;4.332;2022-09-17T16:09:42;13.40;99.90
24152;DHT22;12311;50.866;4.332;2022-09-17T16:12:15;13.40;99.90
24152;DHT22;12311;50.866;4.332;2022-09-17T16:14:46;13.60;99.90
24152;DHT22;12311;50.866;4.332;2022-09-17T16:17:41;13.60;99.90
24152;DHT22;12311;50.866;4.332;2022-09-17T16:20:22;13.70;99.90
24152;DHT22;12311;50.866;4.332;2022-09-17T16:22:49;13.70;99.90
24152;DHT22;12311;50.866;4.332;2022-09-17T16:25:17;13.80;99.90
24152;DHT22;12311;50.866;4.332;2022-09-17T16:30:15;14.00;99.90
24152;DHT22;12311;50.866;4.332;2022-09-17T16:32:41;14.10;99.90
24152;DHT22;12311;50.866;4.332;2022-09-17T16:35:11;14.10;99.90
24152;DHT22;12311;50.866;4.332;2022-09-17T16:37:36;14.00;99.90
24152;DHT22;12311;50.866;4.332;2022-09-17T16:40:02;14.00;99.90
24152;DHT22;12311;50.866;4.332;2022-09-17T16:42:31;13.90;99.90
24152;DHT22;12311;50.866;4.332;2022-09-17T16:44:57;13.70;99.90
24152;DHT22;12311;50.866;4.332;2022-09-17T16:47:24;13.70;99.90
24152;DHT22;12311;50.866;4.332;2022-09-17T16:49:50;13.60;99.90
24152;DHT22;12311;50.866;4.332;2022-09-17T16:52:15;13.60;99.90
24152;DHT22;12311;50.866;4.332;2022-09-17T16:54:41;13.60;99.90
24152;DHT22;12311;50.866;4.332;2022-09-17T16:57:07;13.40;99.90
24152;DHT22;12311;50.866;4.332;2022-09-17T16:59:32;13.40;99.90
24152;DHT22;12311;50.866;4.332;2022-09-17T17:01:58;13.40;99.90
24152;DHT22;12311;50.866;4.332;2022-09-17T17:04:24;13.30;99.90
24152;DHT22;12311;50.866;4.332;2022-09-17T17:06:50;13.20;99.90
24152;DHT22;12311;50.866;4.332;2022-09-17T17:09:16;13.30;99.90
24152;DHT22;12311;50.866;4.332;2022-09-17T17:11:42;13.20;99.90
24152;DHT22;12311;50.866;4.332;2022-09-17T17:14:07;13.10;99.90
24152;DHT22;12311;50.866;4.332;2022-09-17T17:16:33;12.90;99.90
24152;DHT22;12311;50.866;4.332;2022-09-17T17:18:59;12.90;99.90
24152;DHT22;12311;50.866;4.332;2022-09-17T17:21:25;12.90;99.90
24152;DHT22;12311;50.866;4.332;2022-09-17T17:23:50;12.90;99.90
24152;DHT22;12311;50.866;4.332;2022-09-17T17:26:16;12.90;99.90
24152;DHT22;12311;50.866;4.332;2022-09-17T17:28:42;12.80;99.90
24152;DHT22;12311;50.866;4.332;2022-09-17T17:31:09;12.70;99.90
24152;DHT22;12311;50.866;4.332;2022-09-17T17:33:35;12.70;99.90
24152;DHT22;12311;50.866;4.332;2022-09-17T17:36:02;12.80;99.90
24152;DHT22;12311;50.866;4.332;2022-09-17T17:38:28;12.80;99.90
24152;DHT22;12311;50.866;4.332;2022-09-17T17:41:11;12.70;99.90
24152;DHT22;12311;50.866;4.332;2022-09-17T17:43:37;12.70;99.90
24152;DHT22;12311;50.866;4.332;2022-09-17T17:46:08;12.60;99.90
24152;DHT22;12311;50.866;4.332;2022-09-17T17:48:34;12.70;99.90
24152;DHT22;12311;50.866;4.332;2022-09-17T17:51:05;12.70;99.90
24152;DHT22;12311;50.866;4.332;2022-09-17T17:53:31;12.70;99.90
24152;DHT22;12311;50.866;4.332;2022-09-17T17:56:01;12.70;99.90
24152;DHT22;12311;50.866;4.332;2022-09-17T17:58:27;12.70;99.90
24152;DHT22;12311;50.866;4.332;2022-09-17T18:00:53;12.70;99.90
24152;DHT22;12311;50.866;4.332;2022-09-17T18:03:20;12.70;99.90
24152;DHT22;12311;50.866;4.332;2022-09-17T18:05:53;12.60;99.90
24152;DHT22;12311;50.866;4.332;2022-09-17T18:08:22;12.40;99.90
24152;DHT22;12311;50.866;4.332;2022-09-17T18:10:56;12.40;99.90
24152;DHT22;12311;50.866;4.332;2022-09-17T18:13:22;12.40;99.90
24152;DHT22;12311;50.866;4.332;2022-09-17T18:15:54;12.30;99.90
24152;DHT22;12311;50.866;4.332;2022-09-17T18:18:22;12.30;99.90
24152;DHT22;12311;50.866;4.332;2022-09-17T18:20:49;12.30;99.90
24152;DHT22;12311;50.866;4.332;2022-09-17T18:23:16;12.40;99.90
24152;DHT22;12311;50.866;4.332;2022-09-17T18:25:51;12.50;99.90
24152;DHT22;12311;50.866;4.332;2022-09-17T18:28:17;12.50;99.90
24152;DHT22;12311;50.866;4.332;2022-09-17T18:30:43;12.40;99.90
24152;DHT22;12311;50.866;4.332;2022-09-17T18:33:08;12.40;99.90
24152;DHT22;12311;50.866;4.332;2022-09-17T18:35:35;12.50;99.90
24152;DHT22;12311;50.866;4.332;2022-09-17T18:38:05;12.60;99.90
24152;DHT22;12311;50.866;4.332;2022-09-17T18:40:32;12.50;99.90
24152;DHT22;12311;50.866;4.332;2022-09-17T18:42:57;12.50;99.90
24152;DHT22;12311;50.866;4.332;2022-09-17T18:45:23;12.50;99.90
24152;DHT22;12311;50.866;4.332;2022-09-17T18:47:50;12.40;99.90
24152;DHT22;12311;50.866;4.332;2022-09-17T18:50:15;12.40;99.90
24152;DHT22;12311;50.866;4.332;2022-09-17T18:52:42;12.40;99.90
24152;DHT22;12311;50.866;4.332;2022-09-17T18:55:08;12.40;99.90
24152;DHT22;12311;50.866;4.332;2022-09-17T18:57:33;12.40;99.90
24152;DHT22;12311;50.866;4.332;2022-09-17T18:59:59;12.30;99.90
24152;DHT22;12311;50.866;4.332;2022-09-17T19:02:25;12.30;99.90
24152;DHT22;12311;50.866;4.332;2022-09-17T19:04:51;12.40;99.90
24152;DHT22;12311;50.866;4.332;2022-09-17T19:07:17;12.30;99.90
24152;DHT22;12311;50.866;4.332;2022-09-17T19:09:42;12.20;99.90
24152;DHT22;12311;50.866;4.332;2022-09-17T19:12:08;12.30;99.90
24152;DHT22;12311;50.866;4.332;2022-09-17T19:14:34;12.30;99.90
24152;DHT22;12311;50.866;4.332;2022-09-17T19:16:59;12.30;99.90
24152;DHT22;12311;50.866;4.332;2022-09-17T19:19:25;12.30;99.90
24152;DHT22;12311;50.866;4.332;2022-09-17T19:21:51;12.20;99.90
24152;DHT22;12311;50.866;4.332;2022-09-17T19:24:16;12.20;99.90
24152;DHT22;12311;50.866;4.332;2022-09-17T19:26:42;12.20;99.90
24152;DHT22;12311;50.866;4.332;2022-09-17T19:29:08;12.30;99.90